createdAt,value
2023-03-11T00:00:16.894Z,62.60
2023-03-11T00:02:44.829Z,62.60
2023-03-11T00:05:19.173Z,62.60
2023-03-11T00:07:46.036Z,62.60
2023-03-11T00:10:34.508Z,62.60
2023-03-11T00:13:02.165Z,62.60
2023-03-11T00:15:30.103Z,63.00
2023-03-11T00:17:57.615Z,63.10
2023-03-11T00:20:30.088Z,63.00
2023-03-11T00:22:57.694Z,63.10
2023-03-11T00:25:26.437Z,63.00
2023-03-11T00:27:53.185Z,63.00
2023-03-11T00:30:20.677Z,62.90
2023-03-11T00:32:48.874Z,62.90
2023-03-11T00:35:21.166Z,63.00
2023-03-11T00:37:49.271Z,62.90
2023-03-11T00:40:19.377Z,62.90
2023-03-11T00:42:46.249Z,62.90
2023-03-11T00:45:13.948Z,62.90
2023-03-11T00:47:40.688Z,62.80
2023-03-11T00:50:09.634Z,62.80
2023-03-11T00:52:36.427Z,62.80
2023-03-11T00:55:03.378Z,62.80
2023-03-11T00:57:30.756Z,62.70
2023-03-11T00:59:59.512Z,63.30
2023-03-11T01:02:26.229Z,62.70
2023-03-11T01:04:56.192Z,62.70
2023-03-11T01:07:23.166Z,62.70
2023-03-11T01:09:50.119Z,62.70
2023-03-11T01:12:16.850Z,62.80
2023-03-11T01:14:43.828Z,62.70
2023-03-11T01:17:10.539Z,62.70
2023-03-11T01:19:37.377Z,62.70
2023-03-11T01:22:04.163Z,62.70
2023-03-11T01:24:31.130Z,62.70
2023-03-11T01:26:57.827Z,62.80
2023-03-11T01:29:24.896Z,62.70
2023-03-11T01:31:51.773Z,62.70
2023-03-11T01:34:18.513Z,62.60
2023-03-11T01:36:45.262Z,62.70
2023-03-11T01:39:11.989Z,62.70
2023-03-11T01:41:38.723Z,62.70
2023-03-11T01:44:05.849Z,62.60
2023-03-11T01:47:02.128Z,62.70
2023-03-11T01:49:32.510Z,62.70
2023-03-11T01:52:03.926Z,62.70
2023-03-11T01:54:32.453Z,62.80
2023-03-11T01:56:59.978Z,62.80
2023-03-11T01:59:30.465Z,62.80
2023-03-11T02:02:09.433Z,62.80
2023-03-11T02:04:37.401Z,62.80
2023-03-11T02:07:04.934Z,62.80
2023-03-11T02:09:31.705Z,62.90
2023-03-11T02:11:58.674Z,62.90
2023-03-11T02:14:26.257Z,63.40
2023-03-11T02:16:53.655Z,62.70
2023-03-11T02:19:33.084Z,62.70
2023-03-11T02:22:00.921Z,62.70
2023-03-11T02:24:49.103Z,62.80
2023-03-11T02:27:17.497Z,62.80
2023-03-11T02:29:49.633Z,62.70
2023-03-11T02:32:17.158Z,62.70
2023-03-11T02:34:44.458Z,62.60
2023-03-11T02:37:15.732Z,62.70
2023-03-11T02:39:49.707Z,62.60
2023-03-11T02:42:28.879Z,62.60
2023-03-11T02:45:00.374Z,62.60
2023-03-11T02:47:29.140Z,62.60
2023-03-11T02:49:56.878Z,62.60
2023-03-11T02:52:28.858Z,62.50
2023-03-11T02:54:55.710Z,62.50
2023-03-11T02:57:22.534Z,62.60
2023-03-11T02:59:49.281Z,62.50
2023-03-11T03:02:17.282Z,62.70
2023-03-11T03:04:44.450Z,62.60
2023-03-11T03:07:11.423Z,62.60
2023-03-11T03:09:38.274Z,62.60
2023-03-11T03:12:05.407Z,62.60
2023-03-11T03:14:33.394Z,62.60
2023-03-11T03:17:00.395Z,62.50
2023-03-11T03:19:27.136Z,62.60
2023-03-11T03:21:54.787Z,62.50
2023-03-11T03:24:23.663Z,62.60
2023-03-11T03:26:50.385Z,62.60
2023-03-11T03:29:17.105Z,62.50
2023-03-11T03:31:44.841Z,62.50
2023-03-11T03:34:11.552Z,62.50
2023-03-11T03:36:38.449Z,62.60
2023-03-11T03:39:06.562Z,62.50
2023-03-11T03:41:36.598Z,62.50
2023-03-11T03:44:04.723Z,62.60
2023-03-11T03:46:33.405Z,62.50
2023-03-11T03:49:00.404Z,62.50
2023-03-11T03:51:29.030Z,62.50
2023-03-11T03:54:24.783Z,62.50
2023-03-11T03:56:51.674Z,62.40
2023-03-11T03:59:18.836Z,62.40
2023-03-11T04:01:50.657Z,62.50
2023-03-11T04:04:18.535Z,62.60
2023-03-11T04:06:45.302Z,62.50
2023-03-11T04:09:12.479Z,62.50
2023-03-11T04:11:39.367Z,62.40
2023-03-11T04:14:06.934Z,62.40
2023-03-11T04:16:38.396Z,62.40
2023-03-11T04:19:09.792Z,62.40
2023-03-11T04:21:37.808Z,62.40
2023-03-11T04:24:04.987Z,62.40
2023-03-11T04:26:35.218Z,62.40
2023-03-11T04:29:03.235Z,62.30
2023-03-11T04:31:34.095Z,62.30
2023-03-11T04:34:04.629Z,62.90
2023-03-11T04:36:31.528Z,62.20
2023-03-11T04:38:58.440Z,62.20
2023-03-11T04:41:28.717Z,62.10
2023-03-11T04:43:55.563Z,62.20
2023-03-11T04:46:22.966Z,62.20
2023-03-11T04:48:49.763Z,62.10
2023-03-11T04:51:17.553Z,62.10
2023-03-11T04:53:44.900Z,62.10
2023-03-11T04:56:12.297Z,62.20
2023-03-11T04:58:39.887Z,62.20
2023-03-11T05:01:07.206Z,62.20
2023-03-11T05:03:34.264Z,62.20
2023-03-11T05:06:01.278Z,62.20
2023-03-11T05:08:28.066Z,62.20
2023-03-11T05:10:54.897Z,62.30
2023-03-11T05:13:22.798Z,62.20
2023-03-11T05:15:51.729Z,62.20
2023-03-11T05:18:18.488Z,62.20
2023-03-11T05:20:45.788Z,62.30
2023-03-11T05:23:14.132Z,62.30
2023-03-11T05:25:41.459Z,62.30
2023-03-11T05:28:08.703Z,62.20
2023-03-11T05:30:40.696Z,62.30
2023-03-11T05:33:08.777Z,62.30
2023-03-11T05:35:36.052Z,62.30
2023-03-11T05:38:03.055Z,62.30
2023-03-11T05:40:30.578Z,62.30
2023-03-11T05:42:57.318Z,62.30
2023-03-11T05:45:25.737Z,62.30
2023-03-11T05:47:54.716Z,62.30
2023-03-11T05:50:21.436Z,62.30
2023-03-11T05:52:49.990Z,62.30
2023-03-11T05:55:17.325Z,62.30
2023-03-11T05:57:45.828Z,62.30
2023-03-11T06:00:13.136Z,62.30
2023-03-11T06:02:48.121Z,62.30
2023-03-11T06:05:17.944Z,62.30
2023-03-11T06:07:47.493Z,62.40
2023-03-11T06:10:14.342Z,62.40
2023-03-11T06:12:41.668Z,62.50
2023-03-11T06:15:13.876Z,62.50
2023-03-11T06:17:41.695Z,62.50
2023-03-11T06:20:09.941Z,62.50
2023-03-11T06:22:39.952Z,62.50
2023-03-11T06:25:08.191Z,62.50
2023-03-11T06:27:36.593Z,62.50
2023-03-11T06:30:04.552Z,62.60
2023-03-11T06:32:37.174Z,62.50
2023-03-11T06:35:05.590Z,62.60
2023-03-11T06:37:36.953Z,62.60
2023-03-11T06:40:05.790Z,62.60
2023-03-11T06:42:32.675Z,62.60
2023-03-11T06:44:59.617Z,62.60
2023-03-11T06:47:26.846Z,62.60
2023-03-11T06:49:54.694Z,62.60
2023-03-11T06:52:21.452Z,62.70
2023-03-11T06:54:48.194Z,62.70
2023-03-11T06:57:16.978Z,62.70
2023-03-11T06:59:45.073Z,62.70
2023-03-11T07:02:15.121Z,62.70
2023-03-11T07:04:43.097Z,62.80
2023-03-11T07:07:09.861Z,62.90
2023-03-11T07:09:36.803Z,62.90
2023-03-11T07:12:06.732Z,63.60
2023-03-11T07:14:36.249Z,63.00
2023-03-11T07:17:03.006Z,63.10
2023-03-11T07:19:37.626Z,63.10
2023-03-11T07:22:04.396Z,63.30
2023-03-11T07:24:31.118Z,64.00
2023-03-11T07:26:57.870Z,63.90
2023-03-11T07:29:24.603Z,64.30
2023-03-11T07:31:51.355Z,62.40
2023-03-11T07:34:18.061Z,62.60
2023-03-11T07:36:44.770Z,63.20
2023-03-11T07:39:15.475Z,63.40
2023-03-11T07:41:42.602Z,63.70
2023-03-11T07:44:12.202Z,63.80
2023-03-11T07:46:39.010Z,64.10
2023-03-11T07:49:05.723Z,64.10
2023-03-11T07:51:34.240Z,64.30
2023-03-11T07:54:01.636Z,64.50
2023-03-11T07:56:30.716Z,64.60
2023-03-11T07:58:58.799Z,64.70
2023-03-11T08:01:30.437Z,64.90
2023-03-11T08:03:58.820Z,65.00
2023-03-11T08:06:31.074Z,65.20
2023-03-11T08:09:01.590Z,65.30
2023-03-11T08:11:29.375Z,65.60
2023-03-11T08:13:57.797Z,65.80
2023-03-11T08:16:25.561Z,65.70
2023-03-11T08:18:52.738Z,65.80
2023-03-11T08:21:23.142Z,65.80
2023-03-11T08:23:50.491Z,66.00
2023-03-11T08:26:21.902Z,65.90
2023-03-11T08:28:49.348Z,65.90
2023-03-11T08:31:20.022Z,66.10
2023-03-11T08:33:49.958Z,66.00
2023-03-11T08:36:17.519Z,66.10
2023-03-11T08:38:44.349Z,66.10
2023-03-11T08:41:11.139Z,66.10
2023-03-11T08:43:38.051Z,66.10
2023-03-11T08:46:08.732Z,65.90
2023-03-11T08:48:37.707Z,65.80
2023-03-11T08:51:13.722Z,65.70
2023-03-11T08:53:40.708Z,65.50
2023-03-11T08:56:08.255Z,65.30
2023-03-11T08:58:35.602Z,65.30
2023-03-11T09:01:02.720Z,65.20
2023-03-11T09:03:32.484Z,65.10
2023-03-11T09:06:00.407Z,65.00
2023-03-11T09:08:27.378Z,64.90
2023-03-11T09:10:54.210Z,64.70
2023-03-11T09:13:21.343Z,64.60
2023-03-11T09:15:49.561Z,64.50
2023-03-11T09:18:17.144Z,64.30
2023-03-11T09:20:44.568Z,63.90
2023-03-11T09:23:13.851Z,63.60
2023-03-11T09:25:40.631Z,63.40
2023-03-11T09:28:07.445Z,63.20
2023-03-11T09:30:34.214Z,63.20
2023-03-11T09:33:01.049Z,62.90
2023-03-11T09:35:27.945Z,62.90
2023-03-11T09:37:54.689Z,62.60
2023-03-11T09:40:23.416Z,62.00
2023-03-11T09:42:59.463Z,60.70
2023-03-11T09:45:30.905Z,59.60
2023-03-11T09:48:24.092Z,59.00
2023-03-11T09:50:55.871Z,58.40
2023-03-11T09:53:43.086Z,58.00
2023-03-11T09:56:13.285Z,57.60
2023-03-11T09:58:50.667Z,57.30
2023-03-11T10:01:26.243Z,57.00
2023-03-11T10:03:56.212Z,56.70
2023-03-11T10:06:29.584Z,56.30
2023-03-11T10:09:26.502Z,55.90
2023-03-11T10:12:12.049Z,55.70
2023-03-11T10:15:03.171Z,55.50
2023-03-11T10:17:51.801Z,55.20
2023-03-11T10:20:21.720Z,55.00
2023-03-11T10:23:10.419Z,55.00
2023-03-11T10:26:12.992Z,54.30
2023-03-11T10:28:51.140Z,53.70
2023-03-11T10:31:22.989Z,53.20
2023-03-11T10:33:52.288Z,53.00
2023-03-11T10:36:26.491Z,52.90
2023-03-11T10:38:55.462Z,52.80
2023-03-11T10:41:42.698Z,51.90
2023-03-11T10:44:16.758Z,50.70
2023-03-11T10:46:43.547Z,50.50
2023-03-11T10:49:18.309Z,50.40
2023-03-11T10:51:50.574Z,50.10
2023-03-11T10:54:33.288Z,49.70
2023-03-11T10:57:03.038Z,49.40
2023-03-11T10:59:47.708Z,49.10
2023-03-11T11:02:58.150Z,48.90
2023-03-11T11:05:32.639Z,48.70
2023-03-11T11:08:03.876Z,48.80
2023-03-11T11:10:34.249Z,41.50
2023-03-11T11:13:13.215Z,40.70
2023-03-11T11:15:40.910Z,42.70
2023-03-11T11:18:19.190Z,43.60
2023-03-11T11:21:00.986Z,44.00
2023-03-11T11:23:49.462Z,44.00
2023-03-11T11:26:23.050Z,44.20
2023-03-11T11:29:10.929Z,44.40
2023-03-11T11:31:39.578Z,38.80
2023-03-11T11:34:30.745Z,37.30
2023-03-11T11:37:03.431Z,35.80
2023-03-11T11:39:51.745Z,37.10
2023-03-11T11:42:23.612Z,38.60
2023-03-11T11:44:56.592Z,40.00
2023-03-11T11:47:36.583Z,40.50
2023-03-11T11:50:15.093Z,40.70
2023-03-11T11:52:46.248Z,39.60
2023-03-11T11:55:29.829Z,41.50
2023-03-11T11:57:57.253Z,42.20
2023-03-11T12:00:30.986Z,43.30
2023-03-11T12:03:25.579Z,44.40
2023-03-11T12:05:58.443Z,45.70
2023-03-11T12:08:36.642Z,47.50
2023-03-11T12:11:09.305Z,48.50
2023-03-11T12:14:02.111Z,49.50
2023-03-11T12:17:04.637Z,49.70
2023-03-11T12:19:44.671Z,47.30
2023-03-11T12:22:37.293Z,46.40
2023-03-11T12:25:23.395Z,43.90
2023-03-11T12:28:04.117Z,42.00
2023-03-11T12:30:33.450Z,41.50
2023-03-11T12:33:18.409Z,39.30
2023-03-11T12:36:05.109Z,37.40
2023-03-11T12:38:35.643Z,37.10
2023-03-11T12:41:16.016Z,38.20
2023-03-11T12:43:42.919Z,38.40
2023-03-11T12:46:15.045Z,38.60
2023-03-11T12:49:09.308Z,38.50
2023-03-11T12:51:37.527Z,38.10
2023-03-11T12:54:21.718Z,38.70
2023-03-11T12:56:58.691Z,38.20
2023-03-11T12:59:47.899Z,38.50
2023-03-11T13:02:36.731Z,35.90
2023-03-11T13:05:12.743Z,36.80
2023-03-11T13:07:39.488Z,37.90
2023-03-11T13:10:20.245Z,38.00
2023-03-11T13:12:51.733Z,37.10
2023-03-11T13:15:18.481Z,37.40
2023-03-11T13:18:12.283Z,37.50
2023-03-11T13:20:39.015Z,37.00
2023-03-11T13:23:14.983Z,37.30
2023-03-11T13:25:49.855Z,37.10
2023-03-11T13:28:28.807Z,37.30
2023-03-11T13:31:15.000Z,38.30
2023-03-11T13:34:03.009Z,38.40
2023-03-11T13:36:29.834Z,38.00
2023-03-11T13:39:28.638Z,38.20
2023-03-11T13:41:56.184Z,37.70
2023-03-11T13:44:29.621Z,37.90
2023-03-11T13:47:13.988Z,37.40
2023-03-11T13:50:07.519Z,36.60
2023-03-11T13:52:47.519Z,29.30
2023-03-11T13:55:36.044Z,29.30
2023-03-11T13:58:19.175Z,28.10
2023-03-11T14:00:54.470Z,27.10
2023-03-11T14:03:25.361Z,28.30
2023-03-11T14:06:08.121Z,27.20
2023-03-11T14:08:39.202Z,26.50
2023-03-11T14:11:11.713Z,26.50
2023-03-11T14:13:40.283Z,26.40
2023-03-11T14:16:17.757Z,25.70
2023-03-11T14:18:46.661Z,24.80
2023-03-11T14:21:16.077Z,25.20
2023-03-11T14:23:51.713Z,25.40
2023-03-11T14:26:24.625Z,28.50
2023-03-11T14:28:53.143Z,29.20
2023-03-11T14:31:34.762Z,28.90
2023-03-11T14:34:04.760Z,28.30
2023-03-11T14:36:50.874Z,29.30
2023-03-11T14:39:37.768Z,28.60
2023-03-11T14:42:18.901Z,28.40
2023-03-11T14:44:57.870Z,28.60
2023-03-11T14:47:39.237Z,29.10
2023-03-11T14:50:09.781Z,28.90
2023-03-11T14:52:42.121Z,29.60
2023-03-11T14:55:30.058Z,29.70
2023-03-11T14:58:20.763Z,29.80
2023-03-11T15:01:02.556Z,30.00
2023-03-11T15:03:31.879Z,30.10
2023-03-11T15:06:05.481Z,30.10
2023-03-11T15:08:42.789Z,28.10
2023-03-11T15:11:12.636Z,28.60
2023-03-11T15:13:42.087Z,29.20
2023-03-11T15:16:25.547Z,29.70
2023-03-11T15:18:54.329Z,29.60
2023-03-11T15:21:23.298Z,30.20
2023-03-11T15:24:06.341Z,30.30
2023-03-11T15:26:35.180Z,30.00
2023-03-11T15:29:10.696Z,30.40
2023-03-11T15:31:39.539Z,30.30
2023-03-11T15:34:10.856Z,30.30
2023-03-11T15:36:40.222Z,30.10
2023-03-11T15:39:47.538Z,30.30
2023-03-11T15:42:22.786Z,30.00
2023-03-11T15:44:59.887Z,30.10
2023-03-11T15:47:26.684Z,29.50
2023-03-11T15:49:53.407Z,29.90
2023-03-11T15:52:20.236Z,29.50
2023-03-11T15:54:55.185Z,29.40
2023-03-11T15:57:26.530Z,29.90
2023-03-11T15:59:54.915Z,28.40
2023-03-11T16:02:25.060Z,28.80
2023-03-11T16:04:52.398Z,30.60
2023-03-11T16:07:32.845Z,31.60
2023-03-11T16:10:06.000Z,32.30
2023-03-11T16:12:32.752Z,32.80
2023-03-11T16:14:59.457Z,33.60
2023-03-11T16:17:42.894Z,33.80
2023-03-11T16:20:11.585Z,34.20
2023-03-11T16:22:38.497Z,34.40
2023-03-11T16:25:08.673Z,34.70
2023-03-11T16:27:35.508Z,34.80
2023-03-11T16:30:02.310Z,35.10
2023-03-11T16:32:29.270Z,35.40
2023-03-11T16:34:56.031Z,35.60
2023-03-11T16:37:22.767Z,35.80
2023-03-11T16:39:49.492Z,36.00
2023-03-11T16:42:25.529Z,36.10
2023-03-11T16:44:53.653Z,36.40
2023-03-11T16:47:20.391Z,36.50
2023-03-11T16:49:50.397Z,36.60
2023-03-11T16:52:20.808Z,36.90
2023-03-11T16:54:48.164Z,37.10
2023-03-11T16:57:14.864Z,37.60
2023-03-11T16:59:41.695Z,37.80
2023-03-11T17:02:11.217Z,37.80
2023-03-11T17:04:40.776Z,38.20
2023-03-11T17:07:08.253Z,38.30
2023-03-11T17:09:35.948Z,38.70
2023-03-11T17:12:03.911Z,38.90
2023-03-11T17:14:32.163Z,39.20
2023-03-11T17:16:59.329Z,39.30
2023-03-11T17:19:26.132Z,39.80
2023-03-11T17:21:52.831Z,39.90
2023-03-11T17:24:19.603Z,40.10
2023-03-11T17:26:46.358Z,39.10
2023-03-11T17:29:13.069Z,39.30
2023-03-11T17:31:39.833Z,39.40
2023-03-11T17:34:06.621Z,39.80
2023-03-11T17:36:33.455Z,40.20
2023-03-11T17:39:00.159Z,40.30
2023-03-11T17:41:26.956Z,40.10
2023-03-11T17:43:53.680Z,40.20
2023-03-11T17:46:22.490Z,40.50
2023-03-11T17:48:50.097Z,40.70
2023-03-11T17:51:21.896Z,41.10
2023-03-11T17:53:49.319Z,41.40
2023-03-11T17:56:18.468Z,41.60
2023-03-11T17:58:45.484Z,41.90
2023-03-11T18:01:23.229Z,41.90
2023-03-11T18:03:50.285Z,42.20
2023-03-11T18:06:18.706Z,42.40
2023-03-11T18:08:45.428Z,42.60
2023-03-11T18:11:15.939Z,42.70
2023-03-11T18:13:44.471Z,42.80
2023-03-11T18:16:16.897Z,41.80
2023-03-11T18:18:44.361Z,42.00
2023-03-11T18:21:13.243Z,42.50
2023-03-11T18:23:40.708Z,42.80
2023-03-11T18:26:09.268Z,43.10
2023-03-11T18:28:36.169Z,43.30
2023-03-11T18:31:11.518Z,43.40
2023-03-11T18:33:38.921Z,43.70
2023-03-11T18:36:22.546Z,43.70
2023-03-11T18:38:50.593Z,44.00
2023-03-11T18:41:17.434Z,44.10
2023-03-11T18:43:44.135Z,44.20
2023-03-11T18:46:13.741Z,44.30
2023-03-11T18:48:40.398Z,44.50
2023-03-11T18:51:08.916Z,44.80
2023-03-11T18:53:36.607Z,44.80
2023-03-11T18:56:06.170Z,45.00
2023-03-11T18:58:32.877Z,45.10
2023-03-11T19:01:15.058Z,45.60
2023-03-11T19:03:42.836Z,45.60
2023-03-11T19:06:11.441Z,45.50
2023-03-11T19:08:38.724Z,45.60
2023-03-11T19:11:09.494Z,45.70
2023-03-11T19:13:46.642Z,45.90
2023-03-11T19:16:16.596Z,46.00
2023-03-11T19:18:43.765Z,46.00
2023-03-11T19:21:12.445Z,46.00
2023-03-11T19:23:39.249Z,46.40
2023-03-11T19:26:06.598Z,46.30
2023-03-11T19:28:33.446Z,46.40
2023-03-11T19:31:00.274Z,46.40
2023-03-11T19:33:27.411Z,46.50
2023-03-11T19:35:56.408Z,46.60
2023-03-11T19:38:23.770Z,46.70
2023-03-11T19:40:54.488Z,46.70
2023-03-11T19:43:23.767Z,46.90
2023-03-11T19:45:50.603Z,46.90
2023-03-11T19:48:18.524Z,46.90
2023-03-11T19:50:45.451Z,47.00
2023-03-11T19:53:12.185Z,47.10
2023-03-11T19:55:46.124Z,47.00
2023-03-11T19:58:13.133Z,47.20
2023-03-11T20:00:41.657Z,47.30
2023-03-11T20:03:09.424Z,47.40
2023-03-11T20:05:37.257Z,47.40
2023-03-11T20:08:04.691Z,47.60
2023-03-11T20:10:31.426Z,47.60
2023-03-11T20:13:02.522Z,47.60
2023-03-11T20:15:29.957Z,47.70
2023-03-11T20:17:56.893Z,47.60
2023-03-11T20:20:23.622Z,47.70
2023-03-11T20:22:50.399Z,47.70
2023-03-11T20:25:17.124Z,47.50
2023-03-11T20:27:43.977Z,47.70
2023-03-11T20:30:13.448Z,47.80
2023-03-11T20:32:40.239Z,47.70
2023-03-11T20:35:07.377Z,47.70
2023-03-11T20:37:34.175Z,47.60
2023-03-11T20:40:00.978Z,47.80
2023-03-11T20:42:27.718Z,48.00
2023-03-11T20:44:55.495Z,48.00
2023-03-11T20:47:22.363Z,48.00
2023-03-11T20:49:49.168Z,48.00
2023-03-11T20:52:16.218Z,48.00
2023-03-11T20:54:43.019Z,47.90
2023-03-11T20:57:09.905Z,48.00
2023-03-11T20:59:37.096Z,48.10
2023-03-11T21:02:04.003Z,48.10
2023-03-11T21:04:30.731Z,48.20
2023-03-11T21:06:57.559Z,48.10
2023-03-11T21:09:24.746Z,48.10
2023-03-11T21:11:51.955Z,48.10
2023-03-11T21:14:19.468Z,48.10
2023-03-11T21:16:46.477Z,48.20
2023-03-11T21:19:13.995Z,48.30
2023-03-11T21:21:40.976Z,48.40
2023-03-11T21:24:08.164Z,48.40
2023-03-11T21:26:35.237Z,48.40
2023-03-11T21:29:02.176Z,48.50
2023-03-11T21:31:29.771Z,48.40
2023-03-11T21:33:57.953Z,48.50
2023-03-11T21:36:25.002Z,48.50
2023-03-11T21:38:51.944Z,48.60
2023-03-11T21:41:24.993Z,48.60
2023-03-11T21:43:53.766Z,48.60
2023-03-11T21:46:23.727Z,48.70
2023-03-11T21:48:51.183Z,48.70
2023-03-11T21:51:18.861Z,48.70
2023-03-11T21:53:45.962Z,48.70
2023-03-11T21:56:13.557Z,48.80
2023-03-11T21:58:40.844Z,48.90
2023-03-11T22:01:08.929Z,48.90
2023-03-11T22:03:36.589Z,48.80
2023-03-11T22:06:10.007Z,48.90
2023-03-11T22:08:36.839Z,49.00
2023-03-11T22:11:06.997Z,49.00
2023-03-11T22:13:33.896Z,49.00
2023-03-11T22:16:05.738Z,49.00
2023-03-11T22:18:32.743Z,49.10
2023-03-11T22:20:59.698Z,49.20
2023-03-11T22:23:26.936Z,49.10
2023-03-11T22:25:53.861Z,49.20
2023-03-11T22:28:20.636Z,49.30
2023-03-11T22:30:47.323Z,49.50
2023-03-11T22:33:14.124Z,49.30
2023-03-11T22:35:41.002Z,49.50
2023-03-11T22:38:07.728Z,49.70
2023-03-11T22:40:35.383Z,49.60
2023-03-11T22:43:02.169Z,49.50
2023-03-11T22:45:28.888Z,49.50
2023-03-11T22:47:55.594Z,49.60
2023-03-11T22:50:22.350Z,49.90
2023-03-11T22:52:49.082Z,50.10
2023-03-11T22:55:15.856Z,50.40
2023-03-11T22:57:42.687Z,50.20
2023-03-11T23:00:17.220Z,49.90
2023-03-11T23:02:45.119Z,49.90
2023-03-11T23:05:13.672Z,49.80
2023-03-11T23:07:41.124Z,50.00
2023-03-11T23:10:09.413Z,49.90
2023-03-11T23:12:36.948Z,50.00
2023-03-11T23:15:06.344Z,50.00
2023-03-11T23:17:33.065Z,50.20
2023-03-11T23:20:00.161Z,50.30
2023-03-11T23:22:26.926Z,50.20
2023-03-11T23:24:53.901Z,50.20
2023-03-11T23:27:20.712Z,50.30
2023-03-11T23:29:47.839Z,50.20
2023-03-11T23:32:14.581Z,50.40
2023-03-11T23:34:41.358Z,50.50
2023-03-11T23:37:08.131Z,50.30
2023-03-11T23:39:34.995Z,50.50
2023-03-11T23:42:04.931Z,50.50
2023-03-11T23:44:35.947Z,50.60
2023-03-11T23:47:02.669Z,51.10
2023-03-11T23:49:29.370Z,51.00
2023-03-11T23:51:56.128Z,51.00
2023-03-11T23:54:22.821Z,51.10
2023-03-11T23:56:49.539Z,51.10
2023-03-11T23:59:16.292Z,51.00
